Time;durP1;ratioP1;P1;durP2;ratioP2;P2;SDS_P1;SDS_P2;PMS_P1;PMS_P2;Temp;Humidity;BMP_temperature;BMP_pressure;BME280_temperature;BME280_humidity;BME280_pressure;Samples;Min_cycle;Max_cycle;Signal;HPM_P1;HPM_P2
2022/04/29 00:00:56;;;;;;;;;;;;;;;6.95;100.00;103138.44;2613575;36;20037;-52
2022/04/29 00:03:29;;;;;;;;;;;;;;;6.90;100.00;103141.28;2613880;36;19989;-48
2022/04/29 00:06:00;;;;;;;;;;;;;;;6.91;100.00;103132.34;2612397;31;20473;-48
2022/04/29 00:08:28;;;;;;;;;;;;;;;6.96;100.00;103132.16;2612246;36;20061;-48
2022/04/29 00:10:56;;;;;;;;;;;;;;;6.95;100.00;103128.63;2613061;36;20089;-49
2022/04/29 00:13:24;;;;;;;;;;;;;;;6.88;100.00;103131.59;2614219;36;20382;-54
2022/04/29 00:15:53;;;;;;;;;;;;;;;6.82;100.00;103130.00;2613430;36;20427;-49
2022/04/29 00:18:21;;;;;;;;;;;;;;;6.79;100.00;103116.75;2613203;36;20066;-52
2022/04/29 00:20:49;;;;;;;;;;;;;;;6.81;100.00;103110.38;2614198;36;20361;-50
2022/04/29 00:23:21;;;;;;;;;;;;;;;6.88;100.00;103116.41;2613720;36;20461;-48
2022/04/29 00:25:49;;;;;;;;;;;;;;;6.82;100.00;103116.63;2613262;36;19958;-54
2022/04/29 00:28:17;;;;;;;;;;;;;;;6.75;100.00;103120.47;2613485;31;20029;-49
2022/04/29 00:30:45;;;;;;;;;;;;;;;6.79;100.00;103114.06;2613773;36;20522;-50
2022/04/29 00:33:13;;;;;;;;;;;;;;;6.78;100.00;103118.53;2613376;31;19962;-52
2022/04/29 00:35:41;;;;;;;;;;;;;;;6.80;100.00;103110.44;2613506;36;20057;-49
2022/04/29 00:38:15;;;;;;;;;;;;;;;6.63;100.00;103101.22;2613373;36;19973;-52
2022/04/29 00:40:46;;;;;;;;;;;;;;;6.61;100.00;103111.13;2613602;36;19951;-53
2022/04/29 00:43:14;;;;;;;;;;;;;;;6.57;100.00;103109.47;2613620;36;20001;-51
2022/04/29 00:45:42;;;;;;;;;;;;;;;6.65;100.00;103099.38;2613521;31;20037;-50
2022/04/29 00:48:10;;;;;;;;;;;;;;;6.56;100.00;103097.03;2612718;36;19992;-53
2022/04/29 00:50:38;;;;;;;;;;;;;;;6.48;100.00;103104.47;2613317;36;19947;-49
2022/04/29 00:53:07;;;;;;;;;;;;;;;6.49;100.00;103100.84;2613850;36;19972;-51
2022/04/29 00:55:37;;;;;;;;;;;;;;;6.51;100.00;103096.31;2599569;36;20336;-52
2022/04/29 00:58:09;;;;;;;;;;;;;;;6.51;100.00;103090.09;2613108;36;20066;-51
2022/04/29 01:00:38;;;;;;;;;;;;;;;6.55;100.00;103095.28;2613905;36;20074;-49
2022/04/29 01:03:06;;;;;;;;;;;;;;;6.45;100.00;103092.06;2613839;36;19947;-49
2022/04/29 01:05:34;;;;;;;;;;;;;;;6.53;100.00;103083.75;2613188;31;20038;-53
2022/04/29 01:08:03;;;;;;;;;;;;;;;6.44;100.00;103084.09;2613844;36;20081;-51
2022/04/29 01:10:31;;;;;;;;;;;;;;;6.47;100.00;103073.28;2613678;36;20610;-49
2022/04/29 01:12:59;;;;;;;;;;;;;;;6.50;100.00;103075.84;2613688;36;20085;-54
2022/04/29 01:15:31;;;;;;;;;;;;;;;6.45;100.00;103077.81;2612653;36;20061;-48
2022/04/29 01:18:01;;;;;;;;;;;;;;;6.49;100.00;103071.41;2613018;36;20013;-49
2022/04/29 01:20:30;;;;;;;;;;;;;;;6.38;100.00;103070.94;2612436;36;20049;-49
2022/04/29 01:23:06;;;;;;;;;;;;;;;6.40;100.00;103067.25;2614122;36;20363;-50
2022/04/29 01:25:34;;;;;;;;;;;;;;;6.41;100.00;103063.66;2613319;36;20061;-55
2022/04/29 01:28:02;;;;;;;;;;;;;;;6.29;100.00;103062.31;2614101;31;20078;-52
2022/04/29 01:30:31;;;;;;;;;;;;;;;6.24;100.00;103069.63;2613951;31;20436;-55
2022/04/29 01:32:59;;;;;;;;;;;;;;;6.35;100.00;103060.34;2612957;36;19951;-50
2022/04/29 01:35:27;;;;;;;;;;;;;;;6.34;100.00;103074.66;2613800;36;20548;-48
2022/04/29 01:37:55;;;;;;;;;;;;;;;6.30;100.00;103056.03;2613012;36;20034;-49
2022/04/29 01:40:26;;;;;;;;;;;;;;;6.24;100.00;103052.69;2613643;31;20453;-49
2022/04/29 01:42:54;;;;;;;;;;;;;;;6.26;100.00;103049.03;2612869;36;20523;-52
2022/04/29 01:45:22;;;;;;;;;;;;;;;6.28;100.00;103049.84;2613075;36;21093;-49
2022/04/29 01:47:50;;;;;;;;;;;;;;;6.38;100.00;103052.22;2612639;36;19946;-51
2022/04/29 01:50:18;;;;;;;;;;;;;;;6.36;100.00;103054.06;2612909;31;20045;-49
2022/04/29 01:52:46;;;;;;;;;;;;;;;6.34;100.00;103050.56;2613538;36;20070;-49
2022/04/29 01:55:14;;;;;;;;;;;;;;;6.34;100.00;103050.56;2613748;31;20034;-50
2022/04/29 01:57:45;;;;;;;;;;;;;;;6.24;100.00;103052.69;2613283;36;20037;-50
2022/04/29 02:00:14;;;;;;;;;;;;;;;6.15;100.00;103053.88;2613461;36;20109;-48
2022/04/29 02:02:42;;;;;;;;;;;;;;;6.14;100.00;103047.66;2613151;36;19954;-48
2022/04/29 02:05:11;;;;;;;;;;;;;;;6.20;100.00;103049.25;2613756;36;20076;-48
2022/04/29 02:07:40;;;;;;;;;;;;;;;6.13;100.00;103045.06;2613156;36;19954;-48
2022/04/29 02:10:09;;;;;;;;;;;;;;;6.12;100.00;103037.94;2613079;36;19954;-53
2022/04/29 02:12:37;;;;;;;;;;;;;;;6.24;100.00;103045.56;2613337;36;20363;-49
2022/04/29 02:15:08;;;;;;;;;;;;;;;6.08;100.00;103044.31;2612987;36;19958;-47
2022/04/29 02:17:36;;;;;;;;;;;;;;;6.06;100.00;103041.69;2611958;31;19950;-48
2022/04/29 02:20:04;;;;;;;;;;;;;;;6.18;100.00;103040.41;2613416;36;20469;-50
2022/04/29 02:22:32;;;;;;;;;;;;;;;6.23;100.00;103038.47;2613021;36;20030;-49
2022/04/29 02:25:01;;;;;;;;;;;;;;;6.20;100.00;103033.22;2613177;36;19964;-50
2022/04/29 02:27:29;;;;;;;;;;;;;;;6.13;100.00;103037.91;2613045;36;19950;-48
2022/04/29 02:30:00;;;;;;;;;;;;;;;6.09;100.00;103040.72;2613468;36;20042;-52
2022/04/29 02:32:30;;;;;;;;;;;;;;;6.06;100.00;103035.50;2611724;36;20288;-51
2022/04/29 02:35:00;;;;;;;;;;;;;;;6.09;100.00;103040.72;2613137;36;19975;-49
2022/04/29 02:37:28;;;;;;;;;;;;;;;6.08;100.00;103045.22;2612894;36;20364;-51
2022/04/29 02:39:56;;;;;;;;;;;;;;;6.00;100.00;103046.41;2612207;36;19969;-50
2022/04/29 02:42:24;;;;;;;;;;;;;;;6.02;100.00;103044.53;2612568;36;19958;-49
2022/04/29 02:44:52;;;;;;;;;;;;;;;6.05;100.00;103053.34;2612945;36;19950;-48
2022/04/29 02:47:20;;;;;;;;;;;;;;;6.06;100.00;103056.88;2612251;36;19950;-48
2022/04/29 02:49:51;;;;;;;;;;;;;;;6.02;100.00;103049.88;2612334;36;20033;-50
2022/04/29 02:52:19;;;;;;;;;;;;;;;6.00;100.00;103041.91;2612895;36;20477;-48
2022/04/29 02:54:47;;;;;;;;;;;;;;;5.96;100.00;103048.25;2613006;36;19947;-52
2022/04/29 02:57:15;;;;;;;;;;;;;;;6.04;100.00;103038.22;2609007;36;20532;-47
2022/04/29 02:59:43;;;;;;;;;;;;;;;6.10;100.00;103042.50;2607685;31;20053;-52
2022/04/29 03:02:11;;;;;;;;;;;;;;;6.16;100.00;103046.75;2612247;36;19958;-47
2022/04/29 03:04:39;;;;;;;;;;;;;;;6.13;100.00;103047.72;2612930;36;20339;-55
2022/04/29 03:07:09;;;;;;;;;;;;;;;6.18;100.00;103050.22;2613176;36;20089;-49
2022/04/29 03:09:37;;;;;;;;;;;;;;;6.20;100.00;103049.25;2612553;36;20086;-49
2022/04/29 03:12:09;;;;;;;;;;;;;;;6.12;100.00;103051.31;2612025;36;19951;-51
2022/04/29 03:14:37;;;;;;;;;;;;;;;6.15;100.00;103045.84;2612716;31;19946;-48
2022/04/29 03:17:05;;;;;;;;;;;;;;;6.02;100.00;103032.06;2612359;36;19947;-50
2022/04/29 03:19:33;;;;;;;;;;;;;;;5.95;100.00;103028.69;2612887;36;20424;-48
2022/04/29 03:22:01;;;;;;;;;;;;;;;5.94;100.00;103023.41;2612263;36;19991;-51
2022/04/29 03:24:34;;;;;;;;;;;;;;;6.01;100.00;103016.06;2613124;36;20057;-48
2022/04/29 03:27:02;;;;;;;;;;;;;;;6.02;100.00;103007.13;2612441;36;19954;-48
2022/04/29 03:29:30;;;;;;;;;;;;;;;6.03;100.00;102995.50;2612903;36;20065;-55
2022/04/29 03:31:58;;;;;;;;;;;;;;;6.03;100.00;102999.03;2611073;36;19950;-48
2022/04/29 03:34:26;;;;;;;;;;;;;;;6.08;100.00;103007.78;2612273;36;20049;-52
2022/04/29 03:36:54;;;;;;;;;;;;;;;6.08;100.00;103002.44;2612800;36;19957;-48
2022/04/29 03:39:22;;;;;;;;;;;;;;;5.99;100.00;103017.91;2612505;31;19946;-49
2022/04/29 03:41:53;;;;;;;;;;;;;;;6.08;100.00;103018.47;2612365;36;19947;-48
2022/04/29 03:44:21;;;;;;;;;;;;;;;6.07;100.00;103023.88;2613676;31;20109;-53
2022/04/29 03:46:49;;;;;;;;;;;;;;;6.09;100.00;103024.69;2613541;36;20454;-54
2022/04/29 03:51:57;;;;;;;;;;;;;;;6.02;100.00;103004.44;2613092;36;19954;-49
2022/04/29 03:54:25;;;;;;;;;;;;;;;6.09;100.00;103008.66;2613233;36;19973;-47
2022/04/29 03:56:56;;;;;;;;;;;;;;;6.07;100.00;103015.88;2613574;36;19946;-49
2022/04/29 03:59:24;;;;;;;;;;;;;;;6.03;100.00;103019.56;2612478;36;19950;-56
2022/04/29 04:01:52;;;;;;;;;;;;;;;5.99;100.00;103012.56;2613240;36;20060;-54
2022/04/29 04:04:20;;;;;;;;;;;;;;;6.04;100.00;103010.63;2613308;31;19965;-48
2022/04/29 04:07:01;;;;;;;;;;;;;;;6.02;100.00;103012.47;2613501;36;20030;-49
2022/04/29 04:09:29;;;;;;;;;;;;;;;6.02;100.00;103021.38;2611051;36;19958;-48
2022/04/29 04:11:59;;;;;;;;;;;;;;;6.06;100.00;103024.81;2613270;36;20029;-49
2022/04/29 04:14:27;;;;;;;;;;;;;;;5.96;100.00;103019.75;2612668;31;20531;-49
2022/04/29 04:16:56;;;;;;;;;;;;;;;6.06;100.00;103014.09;2613374;36;20426;-49
2022/04/29 04:19:24;;;;;;;;;;;;;;;6.06;100.00;103008.75;2613254;36;19950;-53
2022/04/29 04:21:52;;;;;;;;;;;;;;;6.10;100.00;103005.06;2613682;36;19978;-48
2022/04/29 04:24:20;;;;;;;;;;;;;;;6.02;100.00;103012.47;2613435;31;20101;-48
2022/04/29 04:26:48;;;;;;;;;;;;;;;5.94;100.00;102999.34;2613064;36;19950;-54
2022/04/29 04:29:19;;;;;;;;;;;;;;;5.95;100.00;103007.31;2613718;31;20069;-53
2022/04/29 04:31:47;;;;;;;;;;;;;;;5.99;100.00;103007.22;2612717;36;20049;-48
2022/04/29 04:36:55;;;;;;;;;;;;;;;5.99;100.00;103010.75;2612894;36;19973;-48
2022/04/29 04:39:24;;;;;;;;;;;;;;;6.06;100.00;103004.28;2613670;36;20449;-50
2022/04/29 04:41:52;;;;;;;;;;;;;;;6.07;100.00;103003.34;2612379;31;20057;-53
2022/04/29 04:44:23;;;;;;;;;;;;;;;6.06;100.00;103004.28;2613371;31;20065;-49
2022/04/29 04:46:51;;;;;;;;;;;;;;;6.02;100.00;103012.47;2612503;36;19970;-48
2022/04/29 04:49:20;;;;;;;;;;;;;;;6.10;100.00;103005.91;2612732;36;20097;-48
2022/04/29 04:51:48;;;;;;;;;;;;;;;6.04;100.00;103014.16;2613154;36;19957;-57
2022/04/29 04:54:16;;;;;;;;;;;;;;;6.10;100.00;103011.28;2613449;36;19950;-48
2022/04/29 04:56:44;;;;;;;;;;;;;;;6.15;100.00;103016.44;2612644;36;20065;-51
2022/04/29 04:59:12;;;;;;;;;;;;;;;6.14;100.00;103014.72;2612925;36;19955;-52
2022/04/29 05:01:43;;;;;;;;;;;;;;;6.12;100.00;103011.22;2609369;31;19955;-52
2022/04/29 05:04:11;;;;;;;;;;;;;;;6.21;100.00;103002.00;2612334;31;20034;-55
2022/04/29 05:06:42;;;;;;;;;;;;;;;6.18;100.00;103016.34;2613698;36;20144;-53
2022/04/29 05:09:11;;;;;;;;;;;;;;;6.22;100.00;103020.66;2612789;36;20432;-49
2022/04/29 05:11:39;;;;;;;;;;;;;;;6.25;100.00;103009.84;2612847;36;19953;-50
2022/04/29 05:14:07;;;;;;;;;;;;;;;6.26;100.00;103011.59;2612856;36;19954;-47
2022/04/29 05:16:35;;;;;;;;;;;;;;;6.34;100.00;103016.66;2613285;36;20489;-51
2022/04/29 05:19:05;;;;;;;;;;;;;;;6.34;100.00;103005.97;2611472;36;20081;-52
2022/04/29 05:21:33;;;;;;;;;;;;;;;6.35;100.00;103006.84;2613293;36;20442;-49
2022/04/29 05:24:01;;;;;;;;;;;;;;;6.47;100.00;103004.59;2613253;31;20148;-48
2022/04/29 05:26:29;;;;;;;;;;;;;;;6.63;100.00;102999.53;2612877;36;20422;-51
2022/04/29 05:28:57;;;;;;;;;;;;;;;6.57;100.00;102999.78;2612694;36;20462;-51
2022/04/29 05:31:26;;;;;;;;;;;;;;;6.62;100.00;103007.63;2611586;36;20431;-50
2022/04/29 05:33:55;;;;;;;;;;;;;;;6.64;100.00;103003.97;2612095;31;19969;-49
2022/04/29 05:36:26;;;;;;;;;;;;;;;6.59;100.00;103003.25;2612778;36;19958;-50
2022/04/29 05:44:15;;;;;;;;;;;;;;;6.72;100.00;103002.81;2611956;36;19946;-51
2022/04/29 05:46:43;;;;;;;;;;;;;;;6.81;100.00;103003.31;2612866;36;20441;-48
2022/04/29 05:49:11;;;;;;;;;;;;;;;7.04;100.00;103003.34;2611524;36;20108;-49
2022/04/29 05:51:41;;;;;;;;;;;;;;;6.96;100.00;103009.03;2612432;36;20061;-50
2022/04/29 05:54:09;;;;;;;;;;;;;;;6.92;100.00;103002.94;2612074;36;19969;-51
2022/04/29 05:56:37;;;;;;;;;;;;;;;7.10;100.00;102997.78;2613056;36;20046;-54
2022/04/29 05:59:05;;;;;;;;;;;;;;;7.19;100.00;103000.09;2611732;36;19954;-52
2022/04/29 06:01:33;;;;;;;;;;;;;;;7.26;100.00;103009.63;2610985;36;21457;-52
2022/04/29 06:04:01;;;;;;;;;;;;;;;7.40;100.00;103005.50;2610711;36;20061;-54
2022/04/29 06:06:31;;;;;;;;;;;;;;;7.21;100.00;103011.59;2612649;31;20445;-48
2022/04/29 06:09:02;;;;;;;;;;;;;;;7.40;100.00;103019.78;2611628;36;19996;-49
2022/04/29 06:11:30;;;;;;;;;;;;;;;7.44;100.00;103017.84;2613361;31;19950;-47
2022/04/29 06:13:58;;;;;;;;;;;;;;;7.35;100.00;103025.31;2611276;36;20047;-49
2022/04/29 06:16:26;;;;;;;;;;;;;;;7.25;100.00;103033.78;2612393;36;20041;-53
2022/04/29 06:18:55;;;;;;;;;;;;;;;7.47;100.00;103036.47;2612612;31;20445;-51
2022/04/29 06:21:23;;;;;;;;;;;;;;;7.65;100.00;103043.75;2613125;31;19947;-49
2022/04/29 06:23:51;;;;;;;;;;;;;;;7.75;100.00;103048.75;2612427;36;20057;-49
2022/04/29 06:26:21;;;;;;;;;;;;;;;7.70;100.00;103040.91;2610988;36;20080;-50
2022/04/29 06:28:49;;;;;;;;;;;;;;;7.57;100.00;103039.63;2608901;36;19980;-55
2022/04/29 06:31:17;;;;;;;;;;;;;;;7.87;100.00;103041.03;2611965;36;19947;-47
2022/04/29 06:33:45;;;;;;;;;;;;;;;8.14;100.00;103039.94;2610310;36;20551;-53
2022/04/29 06:36:16;;;;;;;;;;;;;;;8.10;100.00;103041.00;2611290;36;20459;-51
2022/04/29 06:38:44;;;;;;;;;;;;;;;8.33;100.00;103040.00;2613178;31;19946;-51
2022/04/29 06:41:12;;;;;;;;;;;;;;;8.19;100.00;103038.81;2611761;36;20621;-49
2022/04/29 06:43:43;;;;;;;;;;;;;;;8.39;100.00;103037.94;2611456;36;20081;-52
2022/04/29 06:46:11;;;;;;;;;;;;;;;8.42;100.00;103026.16;2611545;36;20552;-54
2022/04/29 06:48:39;;;;;;;;;;;;;;;8.46;100.00;103030.50;2610579;36;19951;-51
2022/04/29 06:51:07;;;;;;;;;;;;;;;8.64;100.00;103028.78;2611995;36;20533;-52
2022/04/29 06:53:35;;;;;;;;;;;;;;;8.70;100.00;103023.16;2613021;36;20305;-53
2022/04/29 06:56:05;;;;;;;;;;;;;;;8.59;100.00;103030.81;2611061;36;20413;-51
2022/04/29 06:58:34;;;;;;;;;;;;;;;8.63;100.00;103029.75;2612861;36;19969;-53
2022/04/29 07:01:04;;;;;;;;;;;;;;;8.85;100.00;103026.06;2612467;36;19962;-55
2022/04/29 07:03:32;;;;;;;;;;;;;;;9.00;100.00;103025.34;2613023;31;20451;-49
2022/04/29 07:06:01;;;;;;;;;;;;;;;9.09;100.00;103021.34;2612623;36;19998;-48
2022/04/29 07:08:30;;;;;;;;;;;;;;;9.35;100.00;103020.09;2612730;36;19950;-54
2022/04/29 07:10:58;;;;;;;;;;;;;;;9.35;100.00;103025.47;2612774;36;19954;-49
2022/04/29 07:13:26;;;;;;;;;;;;;;;9.76;100.00;103029.72;2612271;36;19950;-52
2022/04/29 07:15:54;;;;;;;;;;;;;;;9.84;100.00;103027.53;2612184;36;20026;-49
2022/04/29 07:18:25;;;;;;;;;;;;;;;9.70;100.00;103033.63;2611905;31;20042;-54
2022/04/29 07:20:53;;;;;;;;;;;;;;;9.86;100.00;103036.38;2613261;36;20051;-50
2022/04/29 07:23:21;;;;;;;;;;;;;;;9.86;100.00;103035.53;2613057;36;19950;-52
2022/04/29 07:25:50;;;;;;;;;;;;;;;10.09;100.00;103037.03;2613322;36;20060;-50
2022/04/29 07:28:18;;;;;;;;;;;;;;;9.67;100.00;103036.44;2610790;36;20676;-52
2022/04/29 07:30:46;;;;;;;;;;;;;;;9.79;100.00;103038.53;2613664;36;19946;-55
2022/04/29 07:33:14;;;;;;;;;;;;;;;9.49;100.00;103027.47;2608560;36;20009;-48
2022/04/29 07:43:46;;;;;;;;;;;;;;;10.49;100.00;103014.28;2612571;36;20004;-49
2022/04/29 07:46:16;;;;;;;;;;;;;;;10.71;100.00;103017.66;2613070;36;20401;-55
2022/04/29 07:48:44;;;;;;;;;;;;;;;10.40;100.00;103025.56;2611867;36;19960;-51
2022/04/29 07:51:15;;;;;;;;;;;;;;;10.85;100.00;103025.84;2612921;36;20490;-49
2022/04/29 07:53:43;;;;;;;;;;;;;;;10.49;100.00;103019.69;2611651;36;20054;-52
2022/04/29 07:56:11;;;;;;;;;;;;;;;10.64;100.00;103022.50;2611551;36;20492;-49
2022/04/29 07:58:39;;;;;;;;;;;;;;;10.63;100.00;103026.13;2611033;36;19989;-50
2022/04/29 08:01:09;;;;;;;;;;;;;;;10.83;100.00;103028.63;2612483;36;19947;-50
2022/04/29 08:03:37;;;;;;;;;;;;;;;10.83;100.00;103020.53;2610871;36;19951;-52
2022/04/29 08:06:06;;;;;;;;;;;;;;;11.11;100.00;103027.09;2612694;36;19981;-50
2022/04/29 08:08:37;;;;;;;;;;;;;;;10.79;100.00;103031.56;2612087;36;20490;-49
2022/04/29 08:11:05;;;;;;;;;;;;;;;10.87;100.00;103034.72;2613412;31;19953;-53
2022/04/29 08:13:34;;;;;;;;;;;;;;;10.88;100.00;103028.38;2613855;31;20407;-49
2022/04/29 08:16:03;;;;;;;;;;;;;;;11.09;100.00;103020.91;2612919;36;20475;-56
2022/04/29 08:18:32;;;;;;;;;;;;;;;11.26;100.00;103032.56;2611575;31;19954;-50
2022/04/29 08:21:00;;;;;;;;;;;;;;;11.67;100.00;103026.63;2612539;36;19946;-50
2022/04/29 08:23:28;;;;;;;;;;;;;;;11.90;100.00;103026.13;2612930;31;20306;-51
2022/04/29 08:25:59;;;;;;;;;;;;;;;11.83;100.00;103024.75;2613175;36;20109;-52
2022/04/29 08:28:28;;;;;;;;;;;;;;;11.61;100.00;103010.78;2612697;31;19953;-50
2022/04/29 08:30:56;;;;;;;;;;;;;;;11.88;100.00;103032.56;2612941;36;20339;-55
2022/04/29 08:33:26;;;;;;;;;;;;;;;12.36;100.00;103022.50;2606196;36;19981;-57
2022/04/29 08:35:54;;;;;;;;;;;;;;;12.09;100.00;103022.38;2613363;36;19953;-54
2022/04/29 08:38:22;;;;;;;;;;;;;;;12.12;100.00;103016.78;2612601;36;19980;-55
2022/04/29 08:40:50;;;;;;;;;;;;;;;12.11;100.00;103033.06;2613465;36;20097;-56
2022/04/29 08:43:22;;;;;;;;;;;;;;;12.26;100.00;103038.41;2612118;36;20534;-51
2022/04/29 08:45:53;;;;;;;;;;;;;;;12.15;100.00;103045.41;2613996;36;20251;-51
2022/04/29 08:48:21;;;;;;;;;;;;;;;12.38;100.00;103042.19;2612497;36;20721;-51
2022/04/29 08:50:50;;;;;;;;;;;;;;;12.05;100.00;103050.50;2613312;36;20088;-51
2022/04/29 08:53:18;;;;;;;;;;;;;;;11.85;100.00;103044.44;2612140;31;19985;-61
2022/04/29 08:58:39;;;;;;;;;;;;;;;11.94;100.00;103043.03;2613120;36;20463;-51
2022/04/29 09:01:09;;;;;;;;;;;;;;;11.60;100.00;103045.00;2612794;36;19958;-58
2022/04/29 09:03:37;;;;;;;;;;;;;;;11.67;100.00;103046.34;2612840;36;20058;-55
2022/04/29 09:06:06;;;;;;;;;;;;;;;11.47;100.00;103039.44;2612221;36;19954;-51
2022/04/29 09:08:40;;;;;;;;;;;;;;;11.63;100.00;103039.44;2612907;36;19947;-50
2022/04/29 09:11:08;;;;;;;;;;;;;;;11.98;100.00;103038.31;2613825;36;20562;-57
2022/04/29 09:13:40;;;;;;;;;;;;;;;11.89;100.00;103039.72;2613032;36;20084;-59
2022/04/29 09:16:10;;;;;;;;;;;;;;;11.89;100.00;103039.72;2612397;36;19954;-55
2022/04/29 09:18:39;;;;;;;;;;;;;;;11.79;100.00;103042.06;2612700;36;19946;-49
2022/04/29 09:21:09;;;;;;;;;;;;;;;11.42;100.00;103035.25;2611644;36;19969;-52
2022/04/29 09:23:39;;;;;;;;;;;;;;;11.45;100.00;103033.25;2612349;36;19950;-58
2022/04/29 09:26:08;;;;;;;;;;;;;;;11.52;100.00;103034.63;2612622;36;20439;-49
2022/04/29 09:28:37;;;;;;;;;;;;;;;11.77;100.00;103043.13;2611792;36;19957;-51
2022/04/29 09:31:07;;;;;;;;;;;;;;;11.70;100.00;103038.13;2613050;36;20050;-56
2022/04/29 09:33:37;;;;;;;;;;;;;;;11.71;100.00;103029.03;2611983;36;19947;-49
2022/04/29 09:36:05;;;;;;;;;;;;;;;11.54;100.00;103035.44;2612496;36;20078;-58
2022/04/29 09:41:23;;;;;;;;;;;;;;;11.55;100.00;103025.50;2611276;36;20093;-53
2022/04/29 09:43:51;;;;;;;;;;;;;;;11.53;100.00;103028.28;2612659;36;20744;-59
2022/04/29 09:46:23;;;;;;;;;;;;;;;11.89;100.00;103024.38;2612308;36;19984;-59
2022/04/29 09:48:55;;;;;;;;;;;;;;;12.13;100.00;103026.63;2610202;36;19950;-56
2022/04/29 09:51:38;;;;;;;;;;;;;;;12.26;100.00;103026.72;2612671;36;19985;-53
2022/04/29 09:54:13;;;;;;;;;;;;;;;12.33;100.00;103016.41;2612461;36;20545;-57
2022/04/29 09:56:41;;;;;;;;;;;;;;;12.05;100.00;103026.19;2611898;36;19947;-52
2022/04/29 09:59:10;;;;;;;;;;;;;;;12.06;100.00;103027.94;2612671;31;20495;-49
2022/04/29 10:01:41;;;;;;;;;;;;;;;12.25;100.00;103028.56;2612052;36;20033;-49
2022/04/29 10:04:10;;;;;;;;;;;;;;;12.14;100.00;103031.03;2607170;36;19946;-61
2022/04/29 10:06:40;;;;;;;;;;;;;;;11.81;100.00;103025.81;2606423;36;19950;-53
2022/04/29 10:09:11;;;;;;;;;;;;;;;12.18;100.00;103020.94;2611234;36;20503;-53
2022/04/29 10:11:40;;;;;;;;;;;;;;;12.38;100.00;103019.69;2612261;36;19954;-55
2022/04/29 10:14:10;;;;;;;;;;;;;;;12.88;100.00;103017.47;2612182;36;19950;-50
2022/04/29 10:16:41;;;;;;;;;;;;;;;12.87;100.00;103022.03;2612772;36;20521;-59
2022/04/29 10:21:54;;;;;;;;;;;;;;;12.81;100.00;103017.00;2612355;36;19947;-50
2022/04/29 10:24:24;;;;;;;;;;;;;;;12.96;100.00;103015.16;2612023;36;20489;-58
2022/04/29 10:26:54;;;;;;;;;;;;;;;12.58;100.00;103011.22;2611283;36;19950;-61
2022/04/29 10:29:22;;;;;;;;;;;;;;;13.00;100.00;103010.41;2612408;31;20439;-50
2022/04/29 10:32:14;;;;;;;;;;;;;;;13.07;100.00;103004.53;2611860;31;19950;-50
2022/04/29 10:34:45;;;;;;;;;;;;;;;13.16;100.00;103013.84;2612925;31;20600;-56
2022/04/29 10:37:14;;;;;;;;;;;;;;;12.66;100.00;103012.56;2612438;36;19950;-51
2022/04/29 10:39:43;;;;;;;;;;;;;;;12.91;100.00;103023.56;2610843;36;19946;-52
2022/04/29 10:42:11;;;;;;;;;;;;;;;12.83;100.00;103017.78;2611712;31;20444;-53
2022/04/29 10:44:54;;;;;;;;;;;;;;;12.58;100.00;103016.63;2612333;36;19977;-60
2022/04/29 10:47:36;;;;;;;;;;;;;;;12.55;100.00;103016.81;2611105;36;19946;-53
2022/04/29 10:50:19;;;;;;;;;;;;;;;12.41;100.00;103027.59;2606650;36;19977;-48
2022/04/29 10:53:00;;;;;;;;;;;;;;;11.78;100.00;103026.88;2612485;31;19946;-59
2022/04/29 10:55:28;;;;;;;;;;;;;;;11.85;100.00;103025.53;2612683;36;20519;-54
2022/04/29 10:57:59;;;;;;;;;;;;;;;12.21;100.00;103018.03;2606761;36;20057;-49
2022/04/29 11:00:28;;;;;;;;;;;;;;;12.62;100.00;103018.16;2611603;36;20081;-57
2022/04/29 11:02:56;;;;;;;;;;;;;;;12.71;100.00;103018.56;2611863;36;19953;-57
2022/04/29 11:05:38;;;;;;;;;;;;;;;12.61;100.00;103020.97;2613146;31;20042;-51
2022/04/29 11:08:14;;;;;;;;;;;;;;;12.66;100.00;103013.47;2611444;31;19946;-51
2022/04/29 11:10:55;;;;;;;;;;;;;;;12.88;100.00;103015.66;2612912;36;19951;-62
2022/04/29 11:13:23;;;;;;;;;;;;;;;13.12;100.00;103002.38;2611722;36;20416;-49
2022/04/29 11:15:51;;;;;;;;;;;;;;;13.48;100.00;103002.78;2611963;36;19968;-49
2022/04/29 11:18:23;;;;;;;;;;;;;;;13.57;100.00;103006.72;2611315;36;20042;-49
2022/04/29 11:20:51;;;;;;;;;;;;;;;13.23;100.00;103009.78;2611389;31;19950;-58
2022/04/29 11:26:13;;;;;;;;;;;;;;;13.71;100.00;103008.50;2611231;36;19954;-56
2022/04/29 11:28:41;;;;;;;;;;;;;;;13.31;100.00;102999.34;2612987;31;20354;-58
2022/04/29 11:31:10;;;;;;;;;;;;;;;13.73;100.00;103004.69;2611213;36;19981;-55
2022/04/29 11:33:38;;;;;;;;;;;;;;;13.79;100.00;103003.41;2611565;36;19950;-53
2022/04/29 11:36:07;;;;;;;;;;;;;;;14.06;100.00;102994.34;2611528;36;20021;-50
2022/04/29 11:38:44;;;;;;;;;;;;;;;13.87;100.00;102995.66;2611165;36;20054;-59
2022/04/29 11:41:19;;;;;;;;;;;;;;;13.60;100.00;102998.38;2612605;36;19958;-58
2022/04/29 11:43:48;;;;;;;;;;;;;;;13.90;100.00;102990.03;2611129;36;19950;-55
2022/04/29 11:46:16;;;;;;;;;;;;;;;14.00;100.00;102990.22;2611854;36;20058;-55
2022/04/29 11:48:52;;;;;;;;;;;;;;;13.60;100.00;102992.97;2612210;36;20449;-53
2022/04/29 11:51:20;;;;;;;;;;;;;;;13.34;100.00;102990.19;2611765;36;20025;-57
2022/04/29 11:53:58;;;;;;;;;;;;;;;13.62;100.00;102981.09;2610065;36;19962;-57
2022/04/29 11:56:33;;;;;;;;;;;;;;;13.92;100.00;102977.22;2604428;36;19998;-50
2022/04/29 11:59:02;;;;;;;;;;;;;;;13.97;100.00;102982.31;2610419;36;19950;-59
2022/04/29 12:01:30;;;;;;;;;;;;;;;13.48;100.00;102973.03;2610321;36;19969;-57
2022/04/29 12:03:59;;;;;;;;;;;;;;;13.44;100.00;102976.91;2604589;36;20559;-52
2022/04/29 12:06:28;;;;;;;;;;;;;;;13.75;100.00;102966.69;2609303;36;19970;-48
2022/04/29 12:08:59;;;;;;;;;;;;;;;13.98;100.00;102970.53;2611753;36;19946;-51
2022/04/29 12:11:28;;;;;;;;;;;;;;;14.36;100.00;102969.69;2611439;36;20037;-60
2022/04/29 12:13:57;;;;;;;;;;;;;;;13.91;100.00;102961.09;2612016;36;19953;-55
2022/04/29 12:16:25;;;;;;;;;;;;;;;13.63;100.00;102950.34;2611970;36;21466;-57
2022/04/29 12:18:53;;;;;;;;;;;;;;;13.75;100.00;102964.00;2613057;31;20396;-53
2022/04/29 12:21:25;;;;;;;;;;;;;;;13.72;100.00;102972.31;2612340;36;20041;-54
2022/04/29 12:23:53;;;;;;;;;;;;;;;13.83;100.00;102967.06;2612031;36;20030;-62
2022/04/29 12:26:24;;;;;;;;;;;;;;;13.70;100.00;102971.56;2612831;36;20049;-50
2022/04/29 12:28:56;;;;;;;;;;;;;;;14.02;100.00;102963.94;2613368;31;20355;-53
2022/04/29 12:36:48;;;;;;;;;;;;;;;13.13;100.00;102963.56;2612211;36;20280;-52
2022/04/29 12:39:18;;;;;;;;;;;;;;;13.31;100.00;102961.47;2612998;36;19947;-56
2022/04/29 12:41:58;;;;;;;;;;;;;;;13.24;100.00;102954.72;2613514;31;19977;-58
2022/04/29 12:47:21;;;;;;;;;;;;;;;13.41;100.00;102960.88;2612817;36;19957;-53
2022/04/29 12:49:49;;;;;;;;;;;;;;;13.45;100.00;102962.41;2613367;36;19973;-58
2022/04/29 12:52:17;;;;;;;;;;;;;;;13.99;100.00;102965.00;2613612;31;20026;-51
2022/04/29 12:54:46;;;;;;;;;;;;;;;13.74;100.00;102967.69;2605990;31;19947;-53
2022/04/29 12:57:16;;;;;;;;;;;;;;;14.35;95.63;102967.94;2608131;36;19951;-53
2022/04/29 12:59:45;;;;;;;;;;;;;;;14.50;90.28;102965.97;2613715;36;20118;-54
2022/04/29 13:02:14;;;;;;;;;;;;;;;14.35;100.00;102958.00;2613089;36;20554;-54
2022/04/29 13:04:43;;;;;;;;;;;;;;;14.25;96.48;102956.91;2613534;36;20428;-51
2022/04/29 13:07:11;;;;;;;;;;;;;;;14.41;95.33;102961.22;2612864;36;20461;-56
2022/04/29 13:09:39;;;;;;;;;;;;;;;14.85;92.19;102949.03;2613693;36;19970;-51
2022/04/29 13:12:07;;;;;;;;;;;;;;;14.95;89.06;102950.06;2613189;36;20045;-51
2022/04/29 13:14:38;;;;;;;;;;;;;;;15.01;85.40;102946.91;2613807;36;19954;-58
2022/04/29 13:17:06;;;;;;;;;;;;;;;14.18;90.64;102934.81;2612864;36;20526;-58
2022/04/29 13:19:36;;;;;;;;;;;;;;;14.22;97.18;102945.41;2614006;36;20580;-52
2022/04/29 13:22:04;;;;;;;;;;;;;;;14.58;94.21;102946.47;2613035;36;20943;-55